Date,TemperatureHighF,TemperatureAvgF,TemperatureLowF,DewpointHighF,DewpointAvgF,DewpointLowF,HumidityHigh,HumidityAvg,HumidityLow,PressureMaxIn,PressureMinIn,WindSpeedMaxMPH,WindSpeedAvgMPH,GustSpeedMaxMPH,PrecipitationSumIn
2013-11-1,67.6,62.2,54.8,61.4,56.7,51.6,94,82,69,29.20,28.89,30,6,30,0.00
2013-11-2,65.5,54.5,44.5,51.7,42.8,38.0,93,68,38,29.15,29.01,10,1,10,0.04
2013-11-3,47.9,40.0,30.7,44.7,26.8,13.3,91,61,28,29.81,29.14,12,4,16,0.00
2013-11-4,40.1,32.6,27.3,20.5,15.5,11.9,75,50,32,30.08,29.81,17,3,17,0.00
2013-11-5,49.7,37.7,25.8,34.1,26.6,19.9,85,66,44,30.09,29.90,11,1,11,0.00
2013-11-6,59.2,48.8,36.9,47.8,40.8,33.3,90,75,52,29.90,29.45,17,3,17,0.00
2013-11-7,63.0,51.9,37.1,56.3,47.3,31.3,93,84,74,29.45,29.09,19,3,19,0.10
2013-11-8,45.9,37.3,31.2,33.5,25.6,20.3,80,63,45,29.50,29.23,21,2,21,0.01
2013-11-9,43.2,35.4,24.7,28.0,23.7,20.0,87,64,43,29.61,29.42,14,1,14,0.00
2013-11-10,55.0,43.6,37.5,40.6,34.4,28.1,93,71,50,29.42,29.16,18,3,18,0.02
2013-11-11,50.0,43.5,36.7,30.5,26.9,23.4,65,52,37,29.51,29.28,18,4,18,0.00
2013-11-12,48.1,33.5,24.6,36.9,23.9,13.7,91,68,50,29.58,29.29,19,3,19,0.06
2013-11-13,33.7,27.1,21.1,16.3,13.2,8.7,74,56,36,29.68,29.55,14,2,14,0.00
2013-11-14,50.4,39.0,27.1,23.1,19.2,15.4,64,46,33,29.55,29.44,14,3,14,0.00
2013-11-15,60.2,46.0,35.1,31.0,20.4,13.1,61,38,17,29.60,29.51,14,3,14,0.00
2013-11-16,58.8,46.8,39.3,36.0,28.0,22.8,82,50,27,29.72,29.58,8,1,9,0.00
2013-11-17,52.6,43.7,35.5,45.2,40.3,33.1,97,88,70,29.70,29.25,6,1,6,0.03
2013-11-18,63.4,56.5,46.0,60.1,44.2,30.3,98,66,40,29.25,28.95,23,4,23,0.14
2013-11-19,46.2,28.0,28.8,30.9,-9.1,-99.9,61,39,42,29.67,29.08,19,-245,19,0.00
2013-11-20,40.2,28.9,24.8,16.0,4.5,-99.9,61,44,26,30.00,29.67,16,-70,16,0.00
2013-11-21,47.1,33.4,21.5,32.6,11.4,-99.9,73,50,34,30.01,29.76,13,-72,13,0.00
2013-11-22,47.3,37.2,-90.0,45.5,21.4,-99.9,95,78,73,29.76,29.22,9,-133,9,0.10
2013-11-23,47.8,32.2,-90.0,44.9,8.3,-99.9,94,52,38,29.33,29.20,23,-119,23,0.01
2013-11-24,26.4,19.2,17.4,18.7,-7.0,-99.9,84,42,24,29.58,29.21,25,-93,27,0.00
2013-11-25,31.6,21.2,-90.0,16.7,-5.4,-99.9,59,39,24,29.75,29.58,14,-82,14,0.00
2013-11-26,38.6,29.6,29.2,31.9,6.3,-99.9,95,53,47,29.71,29.42,13,-118,13,0.16
2013-11-27,60.9,36.9,33.3,59.8,16.9,-99.9,100,76,84,29.42,28.65,23,-182,23,0.82
2013-11-28,35.2,22.7,-90.0,30.4,-4.2,-99.9,85,48,35,29.82,28.90,20,-146,20,0.00
2013-11-29,32.0,23.4,18.7,15.2,0.5,-99.9,75,48,41,30.11,29.82,14,-86,14,0.00
2013-11-30,31.5,22.1,12.1,20.4,2.0,-99.9,76,53,47,30.16,29.80,11,-83,11,0.00